createdAt,value
2019-03-15T00:02:19.017Z,100024.66
2019-03-15T00:04:50.227Z,100020.12
2019-03-15T00:07:21.433Z,100025.97
2019-03-15T00:09:52.701Z,100037.92
2019-03-15T00:12:23.958Z,100035.62
2019-03-15T00:14:55.087Z,100037.73
2019-03-15T00:17:26.315Z,100045.39
2019-03-15T00:19:57.560Z,100053.14
2019-03-15T00:22:28.814Z,100051.48
2019-03-15T00:25:00.081Z,100053.98
2019-03-15T00:27:50.271Z,100056.27
2019-03-15T00:30:40.551Z,100059.88
2019-03-15T00:33:11.841Z,100062.54
2019-03-15T00:35:43.058Z,100060.40
2019-03-15T00:38:14.313Z,100066.25
2019-03-15T00:40:45.709Z,100062.16
2019-03-15T00:43:16.960Z,100074.27
2019-03-15T00:45:48.181Z,100072.77
2019-03-15T00:48:19.399Z,100074.75
2019-03-15T00:50:50.550Z,100071.09
2019-03-15T00:53:21.805Z,100068.63
2019-03-15T00:55:53.020Z,100069.78
2019-03-15T00:58:24.287Z,100071.22
2019-03-15T01:00:55.523Z,100070.77
2019-03-15T01:03:27.135Z,100068.25
2019-03-15T01:05:58.318Z,100069.92
2019-03-15T01:08:29.505Z,100068.09
2019-03-15T01:11:00.751Z,100063.24
2019-03-15T01:13:31.871Z,100059.45
2019-03-15T01:16:03.083Z,100069.17
2019-03-15T01:18:34.326Z,100066.14
2019-03-15T01:21:05.693Z,100062.38
2019-03-15T01:23:36.879Z,100052.69
2019-03-15T01:26:08.192Z,100052.53
2019-03-15T01:28:39.431Z,100052.31
2019-03-15T01:31:10.703Z,100060.45
2019-03-15T01:33:41.953Z,100065.09
2019-03-15T01:36:13.181Z,100062.62
2019-03-15T01:38:44.418Z,100058.69
2019-03-15T01:41:15.638Z,100070.58
2019-03-15T01:43:46.958Z,100060.83
2019-03-15T01:46:18.093Z,100055.36
2019-03-15T01:48:49.396Z,100054.71
2019-03-15T01:51:20.630Z,100052.71
2019-03-15T01:53:51.916Z,100051.54
2019-03-15T01:56:26.523Z,100041.35
2019-03-15T01:59:16.755Z,100038.17
2019-03-15T02:02:07.004Z,100036.71
2019-03-15T02:04:38.278Z,100040.03
2019-03-15T02:07:09.484Z,100034.56
2019-03-15T02:09:40.715Z,100043.47
2019-03-15T02:12:11.938Z,100025.10
2019-03-15T02:14:43.094Z,100028.11
2019-03-15T02:17:14.330Z,100030.76
2019-03-15T02:19:45.595Z,100028.27
2019-03-15T02:22:16.841Z,100022.11
2019-03-15T02:24:48.090Z,100020.90
2019-03-15T02:27:19.333Z,100013.13
2019-03-15T02:29:50.592Z,100024.55
2019-03-15T02:32:21.858Z,100022.89
2019-03-15T02:34:53.940Z,100016.80
2019-03-15T02:37:25.258Z,100019.59
2019-03-15T02:39:56.394Z,100013.97
2019-03-15T02:42:27.653Z,100020.88
2019-03-15T02:44:58.879Z,100018.45
2019-03-15T02:47:30.117Z,100010.81
2019-03-15T02:50:02.147Z,100009.79
2019-03-15T02:52:33.417Z,100017.89
2019-03-15T02:55:04.698Z,100019.83
2019-03-15T02:57:36.008Z,100016.33
2019-03-15T03:00:07.563Z,100026.02
2019-03-15T03:02:38.801Z,100029.97
2019-03-15T03:05:10.683Z,100023.23
2019-03-15T03:07:44.916Z,100022.48
2019-03-15T03:10:16.201Z,100018.69
2019-03-15T03:12:47.414Z,100017.84
2019-03-15T03:15:18.631Z,100008.89
2019-03-15T03:17:49.890Z,100011.55
2019-03-15T03:20:21.346Z,100001.59
2019-03-15T03:22:52.649Z,100001.95
2019-03-15T03:25:23.872Z,100004.27
2019-03-15T03:27:55.197Z,100004.97
2019-03-15T03:30:46.781Z,99996.53
2019-03-15T03:33:18.342Z,99991.27
2019-03-15T03:35:49.486Z,99987.17
2019-03-15T03:38:20.747Z,99984.16
2019-03-15T03:40:52.058Z,99982.82
2019-03-15T03:43:23.192Z,99988.26
2019-03-15T03:45:54.442Z,99980.94
2019-03-15T03:48:25.712Z,99981.98
2019-03-15T03:50:59.812Z,99977.33
2019-03-15T03:53:30.034Z,99976.34
2019-03-15T03:56:01.334Z,99983.64
2019-03-15T03:58:32.584Z,99982.48
2019-03-15T04:01:03.774Z,99972.89
2019-03-15T04:03:34.955Z,99976.86
2019-03-15T04:06:06.088Z,99972.44
2019-03-15T04:08:37.231Z,99961.31
2019-03-15T04:11:08.449Z,99961.14
2019-03-15T04:13:39.705Z,99957.83
2019-03-15T04:16:10.920Z,99955.34
2019-03-15T04:18:42.049Z,99958.67
2019-03-15T04:21:13.247Z,99948.27
2019-03-15T04:23:44.488Z,99958.69
2019-03-15T04:26:15.694Z,99962.64
2019-03-15T04:28:47.103Z,99973.73
2019-03-15T04:31:18.241Z,99973.34
2019-03-15T04:33:49.457Z,99970.58
2019-03-15T04:36:20.736Z,99964.29
2019-03-15T04:38:51.866Z,99957.86
2019-03-15T04:41:23.130Z,99952.88
2019-03-15T04:43:54.295Z,99949.75
2019-03-15T04:46:25.580Z,99962.67
2019-03-15T04:48:56.773Z,99958.69
2019-03-15T04:51:28.013Z,99966.48
2019-03-15T04:53:59.189Z,99969.11
2019-03-15T04:56:30.493Z,99953.56
2019-03-15T04:59:01.674Z,99952.53
2019-03-15T05:01:32.853Z,99954.01
2019-03-15T05:04:04.023Z,99951.50
2019-03-15T05:06:35.195Z,99949.52
2019-03-15T05:09:07.695Z,99951.20
2019-03-15T05:11:38.884Z,99943.08
2019-03-15T05:14:10.125Z,99941.10
2019-03-15T05:16:41.328Z,99927.68
2019-03-15T05:19:12.535Z,99922.55
2019-03-15T05:21:43.698Z,99917.28
2019-03-15T05:24:14.905Z,99914.33
2019-03-15T05:26:46.023Z,99906.70
2019-03-15T05:29:17.194Z,99902.93
2019-03-15T05:31:48.457Z,99902.10
2019-03-15T05:34:19.694Z,99908.72
2019-03-15T05:36:50.924Z,99912.98
2019-03-15T05:39:22.049Z,99906.41
2019-03-15T05:41:53.238Z,99909.88
2019-03-15T05:44:24.453Z,99901.45
2019-03-15T05:46:55.694Z,99898.61
2019-03-15T05:49:26.862Z,99892.83
2019-03-15T05:51:57.998Z,99884.23
2019-03-15T05:54:29.168Z,99880.92
2019-03-15T05:57:00.476Z,99874.98
2019-03-15T05:59:31.720Z,99873.16
2019-03-15T06:02:03.173Z,99884.25
2019-03-15T06:04:34.421Z,99876.80
2019-03-15T06:07:05.690Z,99875.81
2019-03-15T06:09:36.886Z,99882.60
2019-03-15T06:12:08.041Z,99871.86
2019-03-15T06:14:39.434Z,99877.63
2019-03-15T06:17:10.647Z,99878.48
2019-03-15T06:19:41.817Z,99866.38
2019-03-15T06:22:13.008Z,99862.41
2019-03-15T06:24:44.168Z,99870.86
2019-03-15T06:27:15.399Z,99864.08
2019-03-15T06:29:46.644Z,99855.80
2019-03-15T06:32:17.896Z,99864.57
2019-03-15T06:34:49.174Z,99864.58
2019-03-15T06:37:20.432Z,99864.05
2019-03-15T06:39:51.617Z,99867.69
2019-03-15T06:42:36.796Z,99863.73
2019-03-15T06:45:09.287Z,99869.54
2019-03-15T06:47:40.542Z,99859.11
2019-03-15T06:50:11.955Z,99861.08
2019-03-15T06:52:43.175Z,99854.97
2019-03-15T06:55:14.531Z,99852.80
2019-03-15T06:57:45.697Z,99859.75
2019-03-15T07:00:17.139Z,99855.94
2019-03-15T07:02:48.271Z,99849.16
2019-03-15T07:05:20.667Z,99843.21
2019-03-15T07:07:52.015Z,99834.27
2019-03-15T07:10:23.249Z,99837.56
2019-03-15T07:12:56.067Z,99838.90
2019-03-15T07:15:29.608Z,99841.22
2019-03-15T07:18:00.788Z,99839.88
2019-03-15T07:20:32.095Z,99838.22
2019-03-15T07:23:05.405Z,99831.95
2019-03-15T07:25:39.908Z,99825.84
2019-03-15T07:28:11.203Z,99825.33
2019-03-15T07:30:42.462Z,99815.41
2019-03-15T07:33:16.621Z,99804.50
2019-03-15T07:35:47.871Z,99795.07
2019-03-15T07:38:19.162Z,99792.41
2019-03-15T07:40:50.481Z,99777.84
2019-03-15T07:43:24.760Z,99776.04
2019-03-15T07:45:56.009Z,99785.30
2019-03-15T07:48:27.299Z,99777.00
2019-03-15T07:51:00.194Z,99786.28
2019-03-15T07:53:31.515Z,99774.52
2019-03-15T07:56:02.661Z,99765.61
2019-03-15T07:58:33.997Z,99755.34
2019-03-15T08:01:05.437Z,99746.55
2019-03-15T08:03:36.866Z,99753.29
2019-03-15T08:06:08.187Z,99745.19
2019-03-15T08:08:39.647Z,99737.72
2019-03-15T08:11:11.091Z,99727.95
2019-03-15T08:13:45.104Z,99731.08
2019-03-15T08:16:18.906Z,99729.59
2019-03-15T08:18:50.364Z,99727.94
2019-03-15T08:21:22.841Z,99709.35
2019-03-15T08:23:54.120Z,99724.61
2019-03-15T08:26:30.200Z,99727.79
2019-03-15T08:29:00.873Z,99726.11
2019-03-15T08:31:32.223Z,99725.47
2019-03-15T08:34:03.539Z,99724.94
2019-03-15T08:36:34.760Z,99725.29
2019-03-15T08:39:07.585Z,99718.98
2019-03-15T08:41:41.763Z,99721.00
2019-03-15T08:44:12.946Z,99715.95
2019-03-15T08:46:44.376Z,99718.61
2019-03-15T08:49:18.760Z,99714.79
2019-03-15T08:52:03.103Z,99711.95
2019-03-15T08:54:23.343Z,99718.59
2019-03-15T08:56:54.813Z,99708.15
2019-03-15T08:59:27.028Z,99703.14
2019-03-15T09:02:10.018Z,99704.80
2019-03-15T09:04:41.561Z,99702.13
2019-03-15T09:07:18.362Z,99719.45
2019-03-15T09:09:57.590Z,99721.36
2019-03-15T09:12:31.984Z,99729.70
2019-03-15T09:15:07.989Z,99730.64
2019-03-15T09:17:40.300Z,99721.67
2019-03-15T09:20:13.138Z,99712.70
2019-03-15T09:22:45.903Z,99713.01
2019-03-15T09:26:10.200Z,99709.70
2019-03-15T09:28:42.511Z,99708.54
2019-03-15T09:31:20.648Z,99711.61
2019-03-15T09:33:53.029Z,99707.60
2019-03-15T09:36:27.826Z,99704.28
2019-03-15T09:38:59.111Z,99705.95
2019-03-15T09:41:32.173Z,99703.45
2019-03-15T09:44:03.249Z,99693.11
2019-03-15T09:46:34.527Z,99684.38
2019-03-15T09:49:05.798Z,99689.13
2019-03-15T09:51:36.998Z,99697.76
2019-03-15T09:54:08.316Z,99708.34
2019-03-15T09:56:39.692Z,99700.52
2019-03-15T09:59:11.035Z,99686.89
2019-03-15T10:01:42.352Z,99691.44
2019-03-15T10:04:13.633Z,99693.56
2019-03-15T10:06:44.918Z,99697.50
2019-03-15T10:09:16.228Z,99689.20
2019-03-15T10:11:47.745Z,99696.09
2019-03-15T10:14:19.278Z,99700.66
2019-03-15T10:16:50.636Z,99694.50
2019-03-15T10:19:22.155Z,99683.25
2019-03-15T10:21:53.433Z,99688.47
2019-03-15T10:24:24.818Z,99689.66
2019-03-15T10:26:56.328Z,99686.63
2019-03-15T10:29:27.721Z,99695.94
2019-03-15T10:31:59.077Z,99699.20
2019-03-15T10:34:30.406Z,99695.52
2019-03-15T10:37:05.989Z,99691.08
2019-03-15T10:39:36.775Z,99701.61
2019-03-15T10:42:08.127Z,99697.82
2019-03-15T10:44:39.588Z,99699.70
2019-03-15T10:47:10.989Z,99690.46
2019-03-15T10:49:42.356Z,99695.01
2019-03-15T10:52:13.717Z,99708.86
2019-03-15T10:55:04.096Z,99713.97
2019-03-15T10:57:55.373Z,99709.20
2019-03-15T11:00:26.861Z,99704.73
2019-03-15T11:02:58.197Z,99704.30
2019-03-15T11:05:29.566Z,99698.08
2019-03-15T11:08:00.858Z,99703.98
2019-03-15T11:10:32.216Z,99703.81
2019-03-15T11:13:03.504Z,99714.88
2019-03-15T11:15:34.762Z,99714.66
2019-03-15T11:18:06.125Z,99729.24
2019-03-15T11:20:37.362Z,99722.89
2019-03-15T11:23:08.719Z,99724.94
2019-03-15T11:25:40.033Z,99725.72
2019-03-15T11:28:11.287Z,99728.58
2019-03-15T11:30:42.554Z,99730.34
2019-03-15T11:33:13.875Z,99727.05
2019-03-15T11:35:45.117Z,99723.12
2019-03-15T11:38:16.416Z,99726.85
2019-03-15T11:40:47.650Z,99726.18
2019-03-15T11:43:18.851Z,99731.10
2019-03-15T11:45:50.046Z,99728.16
2019-03-15T11:48:21.293Z,99717.26
2019-03-15T11:50:52.558Z,99716.88
2019-03-15T11:53:23.727Z,99719.20
2019-03-15T11:55:54.995Z,99716.86
2019-03-15T11:58:26.293Z,99712.77
2019-03-15T12:00:57.601Z,99707.23
2019-03-15T12:03:28.915Z,99707.73
2019-03-15T12:06:00.164Z,99701.85
2019-03-15T12:08:33.548Z,99705.00
2019-03-15T12:11:04.783Z,99706.05
2019-03-15T12:13:36.031Z,99713.05
2019-03-15T12:16:07.375Z,99714.72
2019-03-15T12:18:38.636Z,99715.53
2019-03-15T12:21:09.884Z,99712.63
2019-03-15T12:23:41.103Z,99709.57
2019-03-15T12:29:08.090Z,99714.69
2019-03-15T12:31:41.038Z,99721.17
2019-03-15T12:34:12.232Z,99724.42
2019-03-15T12:36:43.393Z,99729.88
2019-03-15T12:39:14.645Z,99722.17
2019-03-15T12:41:45.945Z,99720.51
2019-03-15T12:44:17.105Z,99718.58
2019-03-15T12:46:48.361Z,99720.08
2019-03-15T12:49:19.578Z,99715.12
2019-03-15T12:51:50.893Z,99722.14
2019-03-15T12:54:22.112Z,99716.36
2019-03-15T12:56:54.216Z,99717.45
2019-03-15T12:59:25.642Z,99707.69
2019-03-15T13:01:56.896Z,99711.16
2019-03-15T13:04:28.038Z,99705.59
2019-03-15T13:06:59.281Z,99692.54
2019-03-15T13:09:30.486Z,99694.49
2019-03-15T13:12:01.681Z,99701.49
2019-03-15T13:14:32.985Z,99699.14
2019-03-15T13:17:04.195Z,99679.84
2019-03-15T13:19:35.429Z,99683.44
2019-03-15T13:22:06.815Z,99678.53
2019-03-15T13:24:38.069Z,99693.14
2019-03-15T13:27:09.320Z,99713.69
2019-03-15T13:29:40.545Z,99689.94
2019-03-15T13:32:11.777Z,99693.50
2019-03-15T13:34:43.026Z,99688.89
2019-03-15T13:37:14.263Z,99684.78
2019-03-15T13:39:45.556Z,99694.64
2019-03-15T13:42:16.809Z,99689.00
2019-03-15T13:44:48.091Z,99690.72
2019-03-15T13:47:19.317Z,99685.02
2019-03-15T13:49:50.504Z,99695.25
2019-03-15T13:52:21.643Z,99676.64
2019-03-15T13:55:11.888Z,99690.69
2019-03-15T13:58:02.149Z,99698.87
2019-03-15T14:00:33.418Z,99688.70
2019-03-15T14:03:04.725Z,99687.14
2019-03-15T14:05:36.052Z,99668.24
2019-03-15T14:08:11.899Z,99679.75
2019-03-15T14:10:49.166Z,99693.94
2019-03-15T14:13:13.109Z,99683.06
2019-03-15T14:15:44.371Z,99682.16
2019-03-15T14:18:15.665Z,99687.91
2019-03-15T14:20:46.922Z,99688.08
2019-03-15T14:23:18.198Z,99705.86
2019-03-15T14:25:49.324Z,99711.94
2019-03-15T14:28:20.650Z,99709.29
2019-03-15T14:30:52.045Z,99697.55
2019-03-15T14:33:23.357Z,99699.92
2019-03-15T14:35:54.588Z,99699.22
2019-03-15T14:38:26.046Z,99704.98
2019-03-15T14:40:57.497Z,99699.46
2019-03-15T14:43:28.827Z,99714.22
2019-03-15T14:46:00.273Z,99707.75
2019-03-15T14:48:31.612Z,99699.62
2019-03-15T14:51:02.874Z,99714.45
2019-03-15T14:53:34.183Z,99713.52
2019-03-15T14:56:06.346Z,99705.39
2019-03-15T14:58:37.633Z,99713.73
2019-03-15T15:01:08.958Z,99716.38
2019-03-15T15:03:40.209Z,99708.99
2019-03-15T15:06:11.549Z,99716.29
2019-03-15T15:08:42.769Z,99709.72
2019-03-15T15:11:14.047Z,99709.30
2019-03-15T15:13:45.373Z,99718.13
2019-03-15T15:16:16.775Z,99711.94
2019-03-15T15:19:01.885Z,99715.70
2019-03-15T15:21:33.042Z,99710.83
2019-03-15T15:24:04.394Z,99706.75
2019-03-15T15:26:54.569Z,99701.32
2019-03-15T15:29:25.886Z,99707.95
2019-03-15T15:31:57.118Z,99701.49
2019-03-15T15:34:28.365Z,99702.35
2019-03-15T15:36:59.760Z,99702.72
2019-03-15T15:39:31.138Z,99700.21
2019-03-15T15:42:02.421Z,99683.67
2019-03-15T15:44:33.705Z,99701.48
2019-03-15T15:47:05.020Z,99706.70
2019-03-15T15:49:36.284Z,99703.34
2019-03-15T15:52:07.705Z,99701.09
2019-03-15T15:54:39.849Z,99702.23
2019-03-15T15:57:11.302Z,99698.43
2019-03-15T15:59:42.673Z,99722.83
2019-03-15T16:02:14.151Z,99720.53
2019-03-15T16:04:45.509Z,99718.56
2019-03-15T16:07:16.743Z,99730.62
2019-03-15T16:09:48.153Z,99736.25
2019-03-15T16:12:19.598Z,99755.05
2019-03-15T16:14:51.109Z,99745.85
2019-03-15T16:17:22.560Z,99768.02
2019-03-15T16:19:53.863Z,99776.86
2019-03-15T16:22:24.977Z,99759.72
2019-03-15T16:24:56.349Z,99770.38
2019-03-15T16:27:27.810Z,99744.64
2019-03-15T16:29:59.680Z,99760.83
2019-03-15T16:32:31.173Z,99739.61
2019-03-15T16:35:02.542Z,99758.41
2019-03-15T16:37:34.029Z,99755.13
2019-03-15T16:40:05.845Z,99768.80
2019-03-15T16:42:37.282Z,99761.53
2019-03-15T16:45:14.973Z,99772.91
2019-03-15T16:47:45.012Z,99786.79
2019-03-15T16:50:16.889Z,99779.30
2019-03-15T16:52:48.643Z,99782.72
2019-03-15T16:55:39.150Z,99788.08
2019-03-15T16:58:10.605Z,99795.75
2019-03-15T17:00:41.996Z,99802.72
2019-03-15T17:03:13.416Z,99807.06
2019-03-15T17:05:44.859Z,99806.36
2019-03-15T17:08:16.302Z,99800.33
2019-03-15T17:10:48.077Z,99798.81
2019-03-15T17:13:20.687Z,99823.30
2019-03-15T17:15:51.900Z,99840.95
2019-03-15T17:18:23.344Z,99855.11
2019-03-15T17:20:54.686Z,99854.84
2019-03-15T17:23:26.256Z,99865.95
2019-03-15T17:25:57.802Z,99874.00
2019-03-15T17:28:29.174Z,99865.45
2019-03-15T17:31:09.595Z,99877.09
2019-03-15T17:33:33.678Z,99878.73
2019-03-15T17:36:05.188Z,99882.58
2019-03-15T17:38:36.790Z,99872.17
2019-03-15T17:41:08.344Z,99891.09
2019-03-15T17:43:39.715Z,99896.59
2019-03-15T17:46:12.927Z,99907.72
2019-03-15T17:48:44.366Z,99911.92
2019-03-15T17:51:15.881Z,99918.73
2019-03-15T17:53:47.234Z,99915.11
2019-03-15T17:56:18.917Z,99910.63
2019-03-15T17:58:50.304Z,99917.95
2019-03-15T18:01:21.675Z,99918.49
2019-03-15T18:03:53.168Z,99929.45
2019-03-15T18:06:24.415Z,99949.05
2019-03-15T18:08:55.698Z,99945.23
2019-03-15T18:11:26.924Z,99968.59
2019-03-15T18:13:58.585Z,99966.29
2019-03-15T18:16:29.780Z,99984.47
2019-03-15T18:19:01.025Z,99996.74
2019-03-15T18:21:51.350Z,99984.32
2019-03-15T18:24:43.243Z,99991.30
2019-03-15T18:27:14.507Z,99983.00
2019-03-15T18:29:45.797Z,99977.41
2019-03-15T18:32:17.038Z,99985.55
2019-03-15T18:34:48.278Z,99976.09
2019-03-15T18:37:19.374Z,99983.42
2019-03-15T18:39:50.516Z,99984.11
2019-03-15T18:42:21.692Z,99987.73
2019-03-15T18:44:52.947Z,100000.39
2019-03-15T18:47:24.174Z,100003.73
2019-03-15T18:49:55.371Z,100012.70
2019-03-15T18:52:26.617Z,100016.05
2019-03-15T18:54:57.852Z,100026.47
2019-03-15T18:57:29.168Z,100028.48
2019-03-15T19:00:00.425Z,100023.69
2019-03-15T19:02:31.734Z,100031.93
2019-03-15T19:05:02.973Z,100037.55
2019-03-15T19:07:34.258Z,100049.17
2019-03-15T19:10:05.986Z,100046.20
2019-03-15T19:12:37.360Z,100037.39
2019-03-15T19:15:09.353Z,100042.05
2019-03-15T19:17:40.643Z,100050.82
2019-03-15T19:20:12.189Z,100045.72
2019-03-15T19:22:43.508Z,100055.17
2019-03-15T19:25:15.000Z,100054.37
2019-03-15T19:27:46.383Z,100062.48
2019-03-15T19:30:17.699Z,100070.45
2019-03-15T19:32:48.972Z,100071.13
2019-03-15T19:35:20.173Z,100078.11
2019-03-15T19:37:51.742Z,100080.87
2019-03-15T19:40:22.982Z,100092.00
2019-03-15T19:42:54.233Z,100096.62
2019-03-15T19:45:25.502Z,100111.73
2019-03-15T19:48:15.704Z,100123.98
2019-03-15T19:51:06.616Z,100125.16
2019-03-15T19:53:47.268Z,100126.97
2019-03-15T19:56:37.153Z,100127.83
2019-03-15T19:59:16.664Z,100143.61
2019-03-15T20:02:09.046Z,100140.44
2019-03-15T20:04:44.079Z,100158.35
2019-03-15T20:07:24.971Z,100179.09
2019-03-15T20:10:01.799Z,100178.91
2019-03-15T20:12:34.608Z,100187.72
2019-03-15T20:15:10.024Z,100187.53
2019-03-15T20:17:46.855Z,100187.84
2019-03-15T20:20:19.620Z,100174.23
2019-03-15T20:22:57.189Z,100174.11
2019-03-15T20:25:29.082Z,100182.22
2019-03-15T20:28:04.003Z,100180.56
2019-03-15T20:30:51.019Z,100182.91
2019-03-15T20:33:12.601Z,100189.21
2019-03-15T20:35:45.503Z,100191.53
2019-03-15T20:38:16.930Z,100199.45
2019-03-15T20:40:48.362Z,100209.77
2019-03-15T20:43:19.666Z,100216.56
2019-03-15T20:45:51.180Z,100209.09
2019-03-15T20:48:25.670Z,100210.41
2019-03-15T20:50:56.905Z,100225.92
2019-03-15T20:53:28.253Z,100211.35
2019-03-15T20:55:59.549Z,100208.83
2019-03-15T20:58:30.728Z,100206.29
2019-03-15T21:01:01.947Z,100211.22
2019-03-15T21:03:33.352Z,100214.16
2019-03-15T21:06:04.570Z,100215.17
2019-03-15T21:08:35.817Z,100214.20
2019-03-15T21:11:07.149Z,100223.47
2019-03-15T21:13:38.407Z,100221.52
2019-03-15T21:16:09.551Z,100214.59
2019-03-15T21:18:40.773Z,100202.02
2019-03-15T21:21:12.016Z,100209.02
2019-03-15T21:23:43.183Z,100207.67
2019-03-15T21:26:14.393Z,100208.98
2019-03-15T21:28:45.661Z,100213.44
2019-03-15T21:31:16.888Z,100212.56
2019-03-15T21:33:48.126Z,100218.84
2019-03-15T21:36:19.279Z,100231.45
2019-03-15T21:38:50.479Z,100229.50
2019-03-15T21:41:21.693Z,100235.08
2019-03-15T21:43:52.846Z,100236.91
2019-03-15T21:46:24.083Z,100236.41
2019-03-15T21:48:58.029Z,100245.03
2019-03-15T21:51:29.229Z,100234.78
2019-03-15T21:54:00.451Z,100243.21
2019-03-15T21:56:31.720Z,100250.23
2019-03-15T21:59:03.034Z,100258.83
2019-03-15T22:01:34.300Z,100261.88
2019-03-15T22:04:05.601Z,100258.16
2019-03-15T22:06:36.880Z,100258.98
2019-03-15T22:09:09.384Z,100266.78
2019-03-15T22:11:40.636Z,100279.42
2019-03-15T22:14:11.893Z,100279.91
2019-03-15T22:16:43.150Z,100276.28
2019-03-15T22:19:14.450Z,100279.27
2019-03-15T22:21:45.659Z,100280.57
2019-03-15T22:24:16.883Z,100288.09
2019-03-15T22:26:48.047Z,100295.72
2019-03-15T22:29:19.482Z,100293.17
2019-03-15T22:31:50.718Z,100274.56
2019-03-15T22:34:21.972Z,100274.41
2019-03-15T22:36:53.233Z,100289.02
2019-03-15T22:39:24.625Z,100302.64
2019-03-15T22:41:55.931Z,100296.00
2019-03-15T22:45:05.287Z,100297.73
2019-03-15T22:53:21.518Z,100309.30
2019-03-15T22:55:52.780Z,100317.28
2019-03-15T22:58:28.075Z,100319.37
2019-03-15T23:00:59.495Z,100318.56
2019-03-15T23:03:30.855Z,100319.91
2019-03-15T23:06:02.248Z,100330.09
2019-03-15T23:08:33.710Z,100336.20
2019-03-15T23:11:05.480Z,100336.55
2019-03-15T23:13:36.925Z,100340.69
2019-03-15T23:16:15.928Z,100338.04
2019-03-15T23:18:47.401Z,100332.30
2019-03-15T23:21:18.790Z,100348.18
2019-03-15T23:23:50.272Z,100353.17
2019-03-15T23:26:21.828Z,100353.52
2019-03-15T23:28:53.238Z,100353.36
2019-03-15T23:31:24.660Z,100356.36
2019-03-15T23:33:56.465Z,100354.98
2019-03-15T23:36:27.968Z,100358.63
2019-03-15T23:38:59.397Z,100356.30
2019-03-15T23:41:30.798Z,100355.16
2019-03-15T23:44:02.244Z,100354.81
2019-03-15T23:46:33.585Z,100358.67
2019-03-15T23:49:04.859Z,100357.70
2019-03-15T23:51:36.247Z,100360.20
2019-03-15T23:54:10.392Z,100360.69
2019-03-15T23:56:42.027Z,100365.50
2019-03-15T23:59:14.551Z,100362.69
